sensor_id;sensor_type;location;lat;lon;timestamp;P1;durP1;ratioP1;P2;durP2;ratioP2
71462;SDS011;59266;52.608;13.260;2023-06-10T00:02:14;14.38;;;4.13;;
71462;SDS011;59266;52.608;13.260;2023-06-10T00:04:40;11.25;;;4.00;;
71462;SDS011;59266;52.608;13.260;2023-06-10T00:07:08;14.20;;;3.80;;
71462;SDS011;59266;52.608;13.260;2023-06-10T00:09:37;8.98;;;4.05;;
71462;SDS011;59266;52.608;13.260;2023-06-10T00:12:07;12.73;;;4.32;;
71462;SDS011;59266;52.608;13.260;2023-06-10T00:14:37;9.80;;;3.63;;
71462;SDS011;59266;52.608;13.260;2023-06-10T00:17:04;12.27;;;3.92;;
71462;SDS011;59266;52.608;13.260;2023-06-10T00:19:38;11.23;;;4.55;;
71462;SDS011;59266;52.608;13.260;2023-06-10T00:22:08;14.05;;;4.65;;
71462;SDS011;59266;52.608;13.260;2023-06-10T00:24:37;10.93;;;3.78;;
71462;SDS011;59266;52.608;13.260;2023-06-10T00:27:04;13.15;;;4.22;;
71462;SDS011;59266;52.608;13.260;2023-06-10T00:29:33;10.68;;;4.43;;
71462;SDS011;59266;52.608;13.260;2023-06-10T00:32:01;10.75;;;3.78;;
71462;SDS011;59266;52.608;13.260;2023-06-10T00:34:29;10.40;;;4.18;;
71462;SDS011;59266;52.608;13.260;2023-06-10T00:36:57;13.15;;;3.67;;
71462;SDS011;59266;52.608;13.260;2023-06-10T00:39:25;12.88;;;4.32;;
71462;SDS011;59266;52.608;13.260;2023-06-10T00:41:52;17.02;;;5.28;;
71462;SDS011;59266;52.608;13.260;2023-06-10T00:44:18;11.63;;;4.50;;
71462;SDS011;59266;52.608;13.260;2023-06-10T00:46:45;8.68;;;4.00;;
71462;SDS011;59266;52.608;13.260;2023-06-10T00:49:13;14.80;;;4.25;;
71462;SDS011;59266;52.608;13.260;2023-06-10T00:51:39;13.35;;;4.15;;
71462;SDS011;59266;52.608;13.260;2023-06-10T00:54:06;13.68;;;3.72;;
71462;SDS011;59266;52.608;13.260;2023-06-10T00:56:35;11.50;;;4.07;;
71462;SDS011;59266;52.608;13.260;2023-06-10T00:59:02;14.25;;;3.70;;
71462;SDS011;59266;52.608;13.260;2023-06-10T01:01:29;11.63;;;4.05;;
71462;SDS011;59266;52.608;13.260;2023-06-10T01:03:56;11.93;;;4.50;;
71462;SDS011;59266;52.608;13.260;2023-06-10T01:09:13;12.10;;;4.47;;
71462;SDS011;59266;52.608;13.260;2023-06-10T01:12:33;16.20;;;4.10;;
71462;SDS011;59266;52.608;13.260;2023-06-10T01:15:00;12.93;;;4.55;;
71462;SDS011;59266;52.608;13.260;2023-06-10T01:17:27;14.43;;;3.97;;
71462;SDS011;59266;52.608;13.260;2023-06-10T01:19:55;11.73;;;4.05;;
71462;SDS011;59266;52.608;13.260;2023-06-10T01:22:38;13.02;;;4.20;;
71462;SDS011;59266;52.608;13.260;2023-06-10T01:25:04;9.90;;;4.25;;
71462;SDS011;59266;52.608;13.260;2023-06-10T01:27:33;11.85;;;3.72;;
71462;SDS011;59266;52.608;13.260;2023-06-10T01:30:11;13.85;;;4.30;;
71462;SDS011;59266;52.608;13.260;2023-06-10T01:32:48;14.50;;;4.05;;
71462;SDS011;59266;52.608;13.260;2023-06-10T01:35:17;12.13;;;5.57;;
71462;SDS011;59266;52.608;13.260;2023-06-10T01:37:48;10.38;;;3.97;;
71462;SDS011;59266;52.608;13.260;2023-06-10T01:40:18;11.18;;;3.88;;
71462;SDS011;59266;52.608;13.260;2023-06-10T01:42:45;11.70;;;3.92;;
71462;SDS011;59266;52.608;13.260;2023-06-10T01:45:11;10.38;;;3.70;;
71462;SDS011;59266;52.608;13.260;2023-06-10T01:47:38;10.50;;;3.75;;
71462;SDS011;59266;52.608;13.260;2023-06-10T01:50:05;10.70;;;3.70;;
71462;SDS011;59266;52.608;13.260;2023-06-10T01:52:34;12.63;;;4.82;;
71462;SDS011;59266;52.608;13.260;2023-06-10T01:55:00;11.63;;;3.53;;
71462;SDS011;59266;52.608;13.260;2023-06-10T01:57:27;8.75;;;3.38;;
71462;SDS011;59266;52.608;13.260;2023-06-10T01:59:55;12.55;;;4.03;;
71462;SDS011;59266;52.608;13.260;2023-06-10T02:02:22;11.27;;;4.20;;
71462;SDS011;59266;52.608;13.260;2023-06-10T02:04:49;14.15;;;4.00;;
71462;SDS011;59266;52.608;13.260;2023-06-10T02:07:15;13.13;;;3.97;;
71462;SDS011;59266;52.608;13.260;2023-06-10T02:09:42;13.48;;;3.85;;
71462;SDS011;59266;52.608;13.260;2023-06-10T02:12:09;17.50;;;4.97;;
71462;SDS011;59266;52.608;13.260;2023-06-10T02:14:36;14.82;;;3.67;;
71462;SDS011;59266;52.608;13.260;2023-06-10T02:17:03;16.45;;;4.53;;
71462;SDS011;59266;52.608;13.260;2023-06-10T02:19:30;14.50;;;3.75;;
71462;SDS011;59266;52.608;13.260;2023-06-10T02:21:57;14.55;;;4.55;;
71462;SDS011;59266;52.608;13.260;2023-06-10T02:24:24;11.93;;;4.18;;
71462;SDS011;59266;52.608;13.260;2023-06-10T02:26:51;14.57;;;4.40;;
71462;SDS011;59266;52.608;13.260;2023-06-10T02:29:18;13.55;;;4.10;;
71462;SDS011;59266;52.608;13.260;2023-06-10T02:31:46;12.95;;;3.83;;
71462;SDS011;59266;52.608;13.260;2023-06-10T02:34:12;12.65;;;3.90;;
71462;SDS011;59266;52.608;13.260;2023-06-10T02:36:40;12.05;;;4.03;;
71462;SDS011;59266;52.608;13.260;2023-06-10T02:39:07;14.48;;;4.05;;
71462;SDS011;59266;52.608;13.260;2023-06-10T02:41:34;14.73;;;4.35;;
71462;SDS011;59266;52.608;13.260;2023-06-10T02:44:01;17.55;;;4.10;;
71462;SDS011;59266;52.608;13.260;2023-06-10T02:46:27;15.95;;;4.05;;
71462;SDS011;59266;52.608;13.260;2023-06-10T02:48:55;12.13;;;4.20;;
71462;SDS011;59266;52.608;13.260;2023-06-10T02:51:21;13.35;;;4.07;;
71462;SDS011;59266;52.608;13.260;2023-06-10T02:53:49;14.90;;;4.13;;
71462;SDS011;59266;52.608;13.260;2023-06-10T02:56:16;12.75;;;4.30;;
71462;SDS011;59266;52.608;13.260;2023-06-10T02:58:43;11.25;;;4.43;;
71462;SDS011;59266;52.608;13.260;2023-06-10T03:01:09;10.80;;;3.97;;
71462;SDS011;59266;52.608;13.260;2023-06-10T03:03:36;14.38;;;4.53;;
71462;SDS011;59266;52.608;13.260;2023-06-10T03:06:10;13.25;;;4.10;;
71462;SDS011;59266;52.608;13.260;2023-06-10T03:08:36;14.50;;;4.00;;
71462;SDS011;59266;52.608;13.260;2023-06-10T03:11:04;11.55;;;4.18;;
71462;SDS011;59266;52.608;13.260;2023-06-10T03:13:31;16.33;;;4.35;;
71462;SDS011;59266;52.608;13.260;2023-06-10T03:15:59;11.98;;;4.10;;
71462;SDS011;59266;52.608;13.260;2023-06-10T03:18:31;11.43;;;4.53;;
71462;SDS011;59266;52.608;13.260;2023-06-10T03:20:58;13.32;;;4.50;;
71462;SDS011;59266;52.608;13.260;2023-06-10T03:23:25;13.10;;;4.40;;
71462;SDS011;59266;52.608;13.260;2023-06-10T03:25:53;12.00;;;4.28;;
71462;SDS011;59266;52.608;13.260;2023-06-10T03:28:21;11.82;;;3.80;;
71462;SDS011;59266;52.608;13.260;2023-06-10T03:30:47;11.45;;;3.85;;
71462;SDS011;59266;52.608;13.260;2023-06-10T03:33:15;15.25;;;4.03;;
71462;SDS011;59266;52.608;13.260;2023-06-10T03:35:42;11.57;;;3.50;;
71462;SDS011;59266;52.608;13.260;2023-06-10T03:38:09;12.05;;;4.00;;
71462;SDS011;59266;52.608;13.260;2023-06-10T03:40:36;13.55;;;4.25;;
71462;SDS011;59266;52.608;13.260;2023-06-10T03:43:02;14.27;;;4.53;;
71462;SDS011;59266;52.608;13.260;2023-06-10T03:45:29;14.27;;;4.60;;
71462;SDS011;59266;52.608;13.260;2023-06-10T03:47:56;11.50;;;4.75;;
71462;SDS011;59266;52.608;13.260;2023-06-10T03:50:23;9.80;;;3.75;;
71462;SDS011;59266;52.608;13.260;2023-06-10T03:52:51;11.77;;;4.03;;
71462;SDS011;59266;52.608;13.260;2023-06-10T03:55:17;14.93;;;4.10;;
71462;SDS011;59266;52.608;13.260;2023-06-10T03:57:44;12.25;;;4.30;;
71462;SDS011;59266;52.608;13.260;2023-06-10T04:00:11;13.00;;;4.30;;
71462;SDS011;59266;52.608;13.260;2023-06-10T04:02:38;11.90;;;4.45;;
71462;SDS011;59266;52.608;13.260;2023-06-10T04:05:13;9.73;;;4.03;;
71462;SDS011;59266;52.608;13.260;2023-06-10T04:07:40;15.98;;;4.47;;
71462;SDS011;59266;52.608;13.260;2023-06-10T04:10:09;15.15;;;4.90;;
71462;SDS011;59266;52.608;13.260;2023-06-10T04:12:36;9.30;;;4.07;;
71462;SDS011;59266;52.608;13.260;2023-06-10T04:15:03;13.95;;;4.75;;
71462;SDS011;59266;52.608;13.260;2023-06-10T04:17:30;12.80;;;4.82;;
71462;SDS011;59266;52.608;13.260;2023-06-10T04:19:57;14.02;;;4.70;;
71462;SDS011;59266;52.608;13.260;2023-06-10T04:22:24;12.07;;;4.47;;
71462;SDS011;59266;52.608;13.260;2023-06-10T04:24:50;10.60;;;4.50;;
71462;SDS011;59266;52.608;13.260;2023-06-10T04:27:18;11.80;;;4.47;;
71462;SDS011;59266;52.608;13.260;2023-06-10T04:29:45;13.60;;;4.45;;
71462;SDS011;59266;52.608;13.260;2023-06-10T04:32:12;13.30;;;4.38;;
71462;SDS011;59266;52.608;13.260;2023-06-10T04:34:38;15.55;;;5.00;;
71462;SDS011;59266;52.608;13.260;2023-06-10T04:37:05;15.63;;;4.47;;
71462;SDS011;59266;52.608;13.260;2023-06-10T04:39:32;19.63;;;4.60;;
71462;SDS011;59266;52.608;13.260;2023-06-10T04:42:03;15.38;;;5.20;;
71462;SDS011;59266;52.608;13.260;2023-06-10T04:44:30;12.20;;;4.50;;
71462;SDS011;59266;52.608;13.260;2023-06-10T04:46:58;9.27;;;3.97;;
71462;SDS011;59266;52.608;13.260;2023-06-10T04:49:25;10.50;;;4.18;;
71462;SDS011;59266;52.608;13.260;2023-06-10T04:51:52;14.05;;;5.10;;
71462;SDS011;59266;52.608;13.260;2023-06-10T04:54:18;13.65;;;5.18;;
71462;SDS011;59266;52.608;13.260;2023-06-10T04:56:45;11.77;;;4.70;;
71462;SDS011;59266;52.608;13.260;2023-06-10T04:59:13;12.70;;;4.18;;
71462;SDS011;59266;52.608;13.260;2023-06-10T05:01:40;13.32;;;3.92;;
71462;SDS011;59266;52.608;13.260;2023-06-10T05:04:08;12.25;;;4.20;;
71462;SDS011;59266;52.608;13.260;2023-06-10T05:06:35;17.50;;;5.10;;
71462;SDS011;59266;52.608;13.260;2023-06-10T05:09:02;14.77;;;4.13;;
71462;SDS011;59266;52.608;13.260;2023-06-10T05:11:30;12.55;;;4.57;;
71462;SDS011;59266;52.608;13.260;2023-06-10T05:13:59;12.30;;;4.88;;
71462;SDS011;59266;52.608;13.260;2023-06-10T05:16:25;13.02;;;4.55;;
71462;SDS011;59266;52.608;13.260;2023-06-10T05:18:52;12.00;;;4.50;;
71462;SDS011;59266;52.608;13.260;2023-06-10T05:21:20;10.32;;;4.40;;
71462;SDS011;59266;52.608;13.260;2023-06-10T05:23:47;12.48;;;4.53;;
71462;SDS011;59266;52.608;13.260;2023-06-10T05:26:14;10.75;;;4.30;;
71462;SDS011;59266;52.608;13.260;2023-06-10T05:28:40;8.55;;;3.95;;
71462;SDS011;59266;52.608;13.260;2023-06-10T05:31:07;12.52;;;4.40;;
71462;SDS011;59266;52.608;13.260;2023-06-10T05:33:34;13.60;;;4.53;;
71462;SDS011;59266;52.608;13.260;2023-06-10T05:36:01;19.00;;;5.00;;
71462;SDS011;59266;52.608;13.260;2023-06-10T05:38:31;12.52;;;4.65;;
71462;SDS011;59266;52.608;13.260;2023-06-10T05:40:59;15.93;;;5.25;;
71462;SDS011;59266;52.608;13.260;2023-06-10T05:43:25;9.98;;;4.65;;
71462;SDS011;59266;52.608;13.260;2023-06-10T05:45:52;13.20;;;5.13;;
71462;SDS011;59266;52.608;13.260;2023-06-10T05:48:19;10.07;;;4.32;;
71462;SDS011;59266;52.608;13.260;2023-06-10T05:50:46;13.13;;;4.75;;
71462;SDS011;59266;52.608;13.260;2023-06-10T05:53:14;10.75;;;4.72;;
71462;SDS011;59266;52.608;13.260;2023-06-10T05:55:42;9.70;;;4.50;;
71462;SDS011;59266;52.608;13.260;2023-06-10T05:58:13;10.23;;;4.03;;
71462;SDS011;59266;52.608;13.260;2023-06-10T06:00:40;11.77;;;4.80;;
71462;SDS011;59266;52.608;13.260;2023-06-10T06:03:09;10.73;;;4.75;;
71462;SDS011;59266;52.608;13.260;2023-06-10T06:05:37;11.57;;;5.05;;
71462;SDS011;59266;52.608;13.260;2023-06-10T06:08:06;13.15;;;4.60;;
71462;SDS011;59266;52.608;13.260;2023-06-10T06:10:36;14.32;;;4.30;;
71462;SDS011;59266;52.608;13.260;2023-06-10T06:13:03;12.10;;;4.80;;
71462;SDS011;59266;52.608;13.260;2023-06-10T06:15:34;10.80;;;4.43;;
71462;SDS011;59266;52.608;13.260;2023-06-10T06:18:00;10.77;;;4.43;;
71462;SDS011;59266;52.608;13.260;2023-06-10T06:20:27;11.10;;;4.90;;
71462;SDS011;59266;52.608;13.260;2023-06-10T06:22:54;11.20;;;4.95;;
71462;SDS011;59266;52.608;13.260;2023-06-10T06:25:21;11.25;;;5.18;;
71462;SDS011;59266;52.608;13.260;2023-06-10T06:27:48;11.25;;;5.22;;
71462;SDS011;59266;52.608;13.260;2023-06-10T06:30:16;13.18;;;5.38;;
71462;SDS011;59266;52.608;13.260;2023-06-10T06:32:43;12.25;;;5.00;;
71462;SDS011;59266;52.608;13.260;2023-06-10T06:35:10;12.07;;;5.57;;
71462;SDS011;59266;52.608;13.260;2023-06-10T06:37:37;11.70;;;5.47;;
71462;SDS011;59266;52.608;13.260;2023-06-10T06:40:03;13.60;;;4.70;;
71462;SDS011;59266;52.608;13.260;2023-06-10T06:42:31;12.75;;;5.25;;
71462;SDS011;59266;52.608;13.260;2023-06-10T06:45:02;12.02;;;4.03;;
71462;SDS011;59266;52.608;13.260;2023-06-10T06:47:28;11.48;;;5.03;;
71462;SDS011;59266;52.608;13.260;2023-06-10T06:49:56;10.82;;;5.00;;
71462;SDS011;59266;52.608;13.260;2023-06-10T06:52:24;14.20;;;5.35;;
71462;SDS011;59266;52.608;13.260;2023-06-10T06:54:50;14.73;;;4.82;;
71462;SDS011;59266;52.608;13.260;2023-06-10T06:57:17;13.15;;;5.20;;
71462;SDS011;59266;52.608;13.260;2023-06-10T06:59:44;11.77;;;5.90;;
71462;SDS011;59266;52.608;13.260;2023-06-10T07:02:10;11.20;;;5.68;;
71462;SDS011;59266;52.608;13.260;2023-06-10T07:04:40;12.98;;;6.13;;
71462;SDS011;59266;52.608;13.260;2023-06-10T07:07:08;11.07;;;5.55;;
71462;SDS011;59266;52.608;13.260;2023-06-10T07:09:37;9.93;;;5.03;;
71462;SDS011;59266;52.608;13.260;2023-06-10T07:12:04;12.45;;;5.50;;
71462;SDS011;59266;52.608;13.260;2023-06-10T07:14:31;14.43;;;5.68;;
71462;SDS011;59266;52.608;13.260;2023-06-10T07:17:07;11.25;;;5.25;;
71462;SDS011;59266;52.608;13.260;2023-06-10T07:19:39;13.18;;;5.65;;
71462;SDS011;59266;52.608;13.260;2023-06-10T07:22:06;10.25;;;5.40;;
71462;SDS011;59266;52.608;13.260;2023-06-10T07:24:33;13.00;;;5.63;;
71462;SDS011;59266;52.608;13.260;2023-06-10T07:27:02;12.98;;;5.18;;
71462;SDS011;59266;52.608;13.260;2023-06-10T07:29:29;13.02;;;4.78;;
71462;SDS011;59266;52.608;13.260;2023-06-10T07:31:56;11.93;;;5.15;;
71462;SDS011;59266;52.608;13.260;2023-06-10T07:34:23;10.70;;;5.38;;
71462;SDS011;59266;52.608;13.260;2023-06-10T07:36:49;9.73;;;5.65;;
71462;SDS011;59266;52.608;13.260;2023-06-10T07:39:16;11.50;;;5.40;;
71462;SDS011;59266;52.608;13.260;2023-06-10T07:41:43;11.63;;;5.63;;
71462;SDS011;59266;52.608;13.260;2023-06-10T07:44:13;12.18;;;6.57;;
71462;SDS011;59266;52.608;13.260;2023-06-10T07:46:50;12.20;;;5.65;;
71462;SDS011;59266;52.608;13.260;2023-06-10T07:49:16;12.95;;;5.97;;
71462;SDS011;59266;52.608;13.260;2023-06-10T07:51:44;17.00;;;6.25;;
71462;SDS011;59266;52.608;13.260;2023-06-10T07:54:13;11.88;;;5.32;;
71462;SDS011;59266;52.608;13.260;2023-06-10T07:56:45;9.05;;;5.32;;
71462;SDS011;59266;52.608;13.260;2023-06-10T07:59:13;12.60;;;5.65;;
71462;SDS011;59266;52.608;13.260;2023-06-10T08:01:43;12.05;;;5.10;;
71462;SDS011;59266;52.608;13.260;2023-06-10T08:04:09;14.75;;;6.32;;
71462;SDS011;59266;52.608;13.260;2023-06-10T08:06:44;11.27;;;5.22;;
71462;SDS011;59266;52.608;13.260;2023-06-10T08:09:11;10.85;;;5.63;;
71462;SDS011;59266;52.608;13.260;2023-06-10T08:11:41;12.32;;;5.15;;
71462;SDS011;59266;52.608;13.260;2023-06-10T08:14:08;11.80;;;5.20;;
71462;SDS011;59266;52.608;13.260;2023-06-10T08:16:35;12.95;;;5.65;;
71462;SDS011;59266;52.608;13.260;2023-06-10T08:19:02;8.88;;;5.60;;
71462;SDS011;59266;52.608;13.260;2023-06-10T08:21:28;15.43;;;6.43;;
71462;SDS011;59266;52.608;13.260;2023-06-10T08:23:55;10.93;;;6.43;;
71462;SDS011;59266;52.608;13.260;2023-06-10T08:26:22;14.25;;;6.47;;
71462;SDS011;59266;52.608;13.260;2023-06-10T08:28:49;12.52;;;5.80;;
71462;SDS011;59266;52.608;13.260;2023-06-10T08:31:17;11.43;;;5.60;;
71462;SDS011;59266;52.608;13.260;2023-06-10T08:33:45;10.77;;;5.38;;
71462;SDS011;59266;52.608;13.260;2023-06-10T08:36:15;13.25;;;6.03;;
71462;SDS011;59266;52.608;13.260;2023-06-10T08:38:50;13.75;;;6.07;;
71462;SDS011;59266;52.608;13.260;2023-06-10T08:41:17;12.60;;;6.25;;
71462;SDS011;59266;52.608;13.260;2023-06-10T08:43:59;12.73;;;6.22;;
71462;SDS011;59266;52.608;13.260;2023-06-10T08:46:34;15.57;;;5.75;;
71462;SDS011;59266;52.608;13.260;2023-06-10T08:49:02;12.00;;;5.15;;
71462;SDS011;59266;52.608;13.260;2023-06-10T08:51:34;11.07;;;5.97;;
71462;SDS011;59266;52.608;13.260;2023-06-10T08:54:02;14.95;;;6.40;;
71462;SDS011;59266;52.608;13.260;2023-06-10T08:56:32;12.65;;;6.22;;
71462;SDS011;59266;52.608;13.260;2023-06-10T08:59:05;12.80;;;6.05;;
71462;SDS011;59266;52.608;13.260;2023-06-10T09:01:32;11.75;;;6.05;;
71462;SDS011;59266;52.608;13.260;2023-06-10T09:03:59;12.88;;;6.30;;
71462;SDS011;59266;52.608;13.260;2023-06-10T09:06:27;13.48;;;6.03;;
71462;SDS011;59266;52.608;13.260;2023-06-10T09:09:00;12.88;;;6.25;;
71462;SDS011;59266;52.608;13.260;2023-06-10T09:11:30;11.75;;;6.03;;
71462;SDS011;59266;52.608;13.260;2023-06-10T09:13:59;12.05;;;6.10;;
71462;SDS011;59266;52.608;13.260;2023-06-10T09:16:32;16.10;;;6.68;;
71462;SDS011;59266;52.608;13.260;2023-06-10T09:18:59;12.60;;;5.68;;
71462;SDS011;59266;52.608;13.260;2023-06-10T09:21:29;16.05;;;7.05;;
71462;SDS011;59266;52.608;13.260;2023-06-10T09:24:00;12.85;;;6.75;;
71462;SDS011;59266;52.608;13.260;2023-06-10T09:26:31;15.68;;;6.65;;
71462;SDS011;59266;52.608;13.260;2023-06-10T09:29:04;12.32;;;6.45;;
71462;SDS011;59266;52.608;13.260;2023-06-10T09:31:36;11.10;;;5.80;;
71462;SDS011;59266;52.608;13.260;2023-06-10T09:34:04;14.60;;;6.20;;
71462;SDS011;59266;52.608;13.260;2023-06-10T09:36:33;13.95;;;6.30;;
71462;SDS011;59266;52.608;13.260;2023-06-10T09:39:01;15.07;;;6.20;;
71462;SDS011;59266;52.608;13.260;2023-06-10T09:41:34;12.23;;;6.10;;
71462;SDS011;59266;52.608;13.260;2023-06-10T09:44:08;10.80;;;6.13;;
71462;SDS011;59266;52.608;13.260;2023-06-10T09:46:38;14.90;;;6.00;;
71462;SDS011;59266;52.608;13.260;2023-06-10T09:49:05;12.10;;;6.13;;
71462;SDS011;59266;52.608;13.260;2023-06-10T09:51:32;11.85;;;6.55;;
71462;SDS011;59266;52.608;13.260;2023-06-10T09:53:59;11.88;;;6.05;;
71462;SDS011;59266;52.608;13.260;2023-06-10T09:56:36;15.25;;;6.60;;
71462;SDS011;59266;52.608;13.260;2023-06-10T09:59:03;15.93;;;5.97;;
71462;SDS011;59266;52.608;13.260;2023-06-10T10:01:32;11.55;;;5.95;;
71462;SDS011;59266;52.608;13.260;2023-06-10T10:04:00;14.85;;;6.38;;
71462;SDS011;59266;52.608;13.260;2023-06-10T10:06:28;14.48;;;6.22;;
71462;SDS011;59266;52.608;13.260;2023-06-10T10:08:56;11.75;;;6.18;;
71462;SDS011;59266;52.608;13.260;2023-06-10T10:11:23;11.35;;;6.07;;
71462;SDS011;59266;52.608;13.260;2023-06-10T10:13:50;11.23;;;5.68;;
71462;SDS011;59266;52.608;13.260;2023-06-10T10:16:19;13.32;;;6.50;;
71462;SDS011;59266;52.608;13.260;2023-06-10T10:18:53;14.43;;;6.55;;
71462;SDS011;59266;52.608;13.260;2023-06-10T10:21:26;14.05;;;6.25;;
71462;SDS011;59266;52.608;13.260;2023-06-10T10:26:34;13.63;;;6.13;;
71462;SDS011;59266;52.608;13.260;2023-06-10T10:29:10;15.43;;;5.95;;
71462;SDS011;59266;52.608;13.260;2023-06-10T10:31:44;12.50;;;6.18;;
71462;SDS011;59266;52.608;13.260;2023-06-10T10:34:16;13.18;;;6.18;;
71462;SDS011;59266;52.608;13.260;2023-06-10T10:36:48;14.35;;;6.50;;
71462;SDS011;59266;52.608;13.260;2023-06-10T10:39:16;13.75;;;6.18;;
71462;SDS011;59266;52.608;13.260;2023-06-10T10:41:49;9.02;;;6.30;;
71462;SDS011;59266;52.608;13.260;2023-06-10T10:44:18;10.65;;;6.00;;
71462;SDS011;59266;52.608;13.260;2023-06-10T10:46:49;12.48;;;6.05;;
71462;SDS011;59266;52.608;13.260;2023-06-10T10:49:18;12.38;;;6.28;;
71462;SDS011;59266;52.608;13.260;2023-06-10T10:51:56;11.45;;;6.10;;
71462;SDS011;59266;52.608;13.260;2023-06-10T10:54:31;9.73;;;5.53;;
71462;SDS011;59266;52.608;13.260;2023-06-10T10:57:17;12.77;;;6.07;;
71462;SDS011;59266;52.608;13.260;2023-06-10T11:02:17;10.38;;;5.50;;
71462;SDS011;59266;52.608;13.260;2023-06-10T11:04:48;11.35;;;5.55;;
71462;SDS011;59266;52.608;13.260;2023-06-10T11:07:19;12.88;;;6.07;;
71462;SDS011;59266;52.608;13.260;2023-06-10T11:09:58;9.77;;;5.10;;
71462;SDS011;59266;52.608;13.260;2023-06-10T11:15:26;12.05;;;6.03;;
71462;SDS011;59266;52.608;13.260;2023-06-10T11:26:13;10.25;;;5.22;;
71462;SDS011;59266;52.608;13.260;2023-06-10T11:31:19;9.88;;;5.53;;
71462;SDS011;59266;52.608;13.260;2023-06-10T11:33:48;13.95;;;5.43;;
71462;SDS011;59266;52.608;13.260;2023-06-10T11:36:19;10.20;;;5.70;;
71462;SDS011;59266;52.608;13.260;2023-06-10T11:38:47;10.07;;;5.47;;
71462;SDS011;59266;52.608;13.260;2023-06-10T11:41:14;8.70;;;5.40;;
71462;SDS011;59266;52.608;13.260;2023-06-10T11:43:43;11.68;;;5.20;;
71462;SDS011;59266;52.608;13.260;2023-06-10T11:46:11;8.05;;;4.50;;
71462;SDS011;59266;52.608;13.260;2023-06-10T11:48:38;9.13;;;5.18;;
71462;SDS011;59266;52.608;13.260;2023-06-10T11:51:07;8.98;;;5.13;;
71462;SDS011;59266;52.608;13.260;2023-06-10T11:53:34;11.50;;;5.50;;
71462;SDS011;59266;52.608;13.260;2023-06-10T11:56:01;10.13;;;5.47;;
71462;SDS011;59266;52.608;13.260;2023-06-10T11:58:31;13.90;;;5.50;;
71462;SDS011;59266;52.608;13.260;2023-06-10T12:00:57;10.25;;;5.40;;
71462;SDS011;59266;52.608;13.260;2023-06-10T12:03:25;10.10;;;5.35;;
71462;SDS011;59266;52.608;13.260;2023-06-10T12:05:55;14.05;;;5.68;;
71462;SDS011;59266;52.608;13.260;2023-06-10T12:08:23;9.70;;;5.32;;
71462;SDS011;59266;52.608;13.260;2023-06-10T12:10:50;10.07;;;6.00;;
71462;SDS011;59266;52.608;13.260;2023-06-10T12:13:20;11.85;;;5.63;;
71462;SDS011;59266;52.608;13.260;2023-06-10T12:15:49;8.75;;;5.75;;
71462;SDS011;59266;52.608;13.260;2023-06-10T12:18:17;15.32;;;5.80;;
71462;SDS011;59266;52.608;13.260;2023-06-10T12:20:51;9.57;;;5.65;;
71462;SDS011;59266;52.608;13.260;2023-06-10T12:23:18;9.65;;;5.65;;
71462;SDS011;59266;52.608;13.260;2023-06-10T12:25:50;10.40;;;5.80;;
71462;SDS011;59266;52.608;13.260;2023-06-10T12:28:21;10.98;;;5.22;;
71462;SDS011;59266;52.608;13.260;2023-06-10T12:30:50;17.60;;;6.88;;
71462;SDS011;59266;52.608;13.260;2023-06-10T12:35:47;11.32;;;6.15;;
71462;SDS011;59266;52.608;13.260;2023-06-10T12:38:20;8.80;;;5.25;;
71462;SDS011;59266;52.608;13.260;2023-06-10T12:40:48;8.05;;;4.80;;
71462;SDS011;59266;52.608;13.260;2023-06-10T12:43:24;10.07;;;5.68;;
71462;SDS011;59266;52.608;13.260;2023-06-10T12:45:52;26.70;;;7.75;;
71462;SDS011;59266;52.608;13.260;2023-06-10T12:48:21;8.10;;;5.03;;
71462;SDS011;59266;52.608;13.260;2023-06-10T12:50:57;8.98;;;5.28;;
71462;SDS011;59266;52.608;13.260;2023-06-10T12:53:25;9.63;;;4.90;;
71462;SDS011;59266;52.608;13.260;2023-06-10T12:55:57;23.80;;;9.05;;
71462;SDS011;59266;52.608;13.260;2023-06-10T12:58:29;10.65;;;5.40;;
71462;SDS011;59266;52.608;13.260;2023-06-10T13:00:55;10.25;;;5.97;;
71462;SDS011;59266;52.608;13.260;2023-06-10T13:03:25;11.57;;;6.38;;
71462;SDS011;59266;52.608;13.260;2023-06-10T13:05:52;10.23;;;5.97;;
71462;SDS011;59266;52.608;13.260;2023-06-10T13:08:21;10.43;;;6.93;;
71462;SDS011;59266;52.608;13.260;2023-06-10T13:10:48;15.10;;;6.57;;
71462;SDS011;59266;52.608;13.260;2023-06-10T13:13:15;13.52;;;6.57;;
71462;SDS011;59266;52.608;13.260;2023-06-10T13:15:43;10.38;;;6.57;;
71462;SDS011;59266;52.608;13.260;2023-06-10T13:18:09;12.88;;;7.07;;
71462;SDS011;59266;52.608;13.260;2023-06-10T13:20:36;24.13;;;7.35;;
71462;SDS011;59266;52.608;13.260;2023-06-10T13:23:03;12.63;;;7.03;;
71462;SDS011;59266;52.608;13.260;2023-06-10T13:25:31;13.15;;;6.82;;
71462;SDS011;59266;52.608;13.260;2023-06-10T13:28:00;13.02;;;7.35;;
71462;SDS011;59266;52.608;13.260;2023-06-10T13:30:26;11.23;;;6.95;;
71462;SDS011;59266;52.608;13.260;2023-06-10T13:32:56;11.57;;;6.93;;
71462;SDS011;59266;52.608;13.260;2023-06-10T13:35:23;12.43;;;6.63;;
71462;SDS011;59266;52.608;13.260;2023-06-10T13:37:52;9.52;;;6.35;;
71462;SDS011;59266;52.608;13.260;2023-06-10T13:40:19;9.80;;;6.63;;
71462;SDS011;59266;52.608;13.260;2023-06-10T13:42:46;9.73;;;6.65;;
71462;SDS011;59266;52.608;13.260;2023-06-10T13:45:17;11.90;;;6.90;;
71462;SDS011;59266;52.608;13.260;2023-06-10T13:47:44;10.75;;;6.40;;
71462;SDS011;59266;52.608;13.260;2023-06-10T13:50:16;12.68;;;6.68;;
71462;SDS011;59266;52.608;13.260;2023-06-10T13:52:43;12.68;;;6.50;;
71462;SDS011;59266;52.608;13.260;2023-06-10T13:55:10;11.05;;;5.93;;
71462;SDS011;59266;52.608;13.260;2023-06-10T13:57:39;12.32;;;6.05;;
71462;SDS011;59266;52.608;13.260;2023-06-10T14:00:11;9.10;;;5.25;;
71462;SDS011;59266;52.608;13.260;2023-06-10T14:02:38;10.30;;;6.10;;
71462;SDS011;59266;52.608;13.260;2023-06-10T14:05:05;9.68;;;6.20;;
71462;SDS011;59266;52.608;13.260;2023-06-10T14:07:35;12.07;;;6.63;;
71462;SDS011;59266;52.608;13.260;2023-06-10T14:10:03;10.27;;;5.97;;
71462;SDS011;59266;52.608;13.260;2023-06-10T14:12:31;12.23;;;6.35;;
71462;SDS011;59266;52.608;13.260;2023-06-10T14:14:58;10.63;;;6.30;;
71462;SDS011;59266;52.608;13.260;2023-06-10T14:17:24;10.02;;;5.57;;
71462;SDS011;59266;52.608;13.260;2023-06-10T14:19:52;12.18;;;6.32;;
71462;SDS011;59266;52.608;13.260;2023-06-10T14:22:18;12.25;;;5.30;;
71462;SDS011;59266;52.608;13.260;2023-06-10T14:24:45;10.50;;;6.00;;
71462;SDS011;59266;52.608;13.260;2023-06-10T14:27:13;8.57;;;4.97;;
71462;SDS011;59266;52.608;13.260;2023-06-10T14:29:40;9.50;;;4.85;;
71462;SDS011;59266;52.608;13.260;2023-06-10T14:32:07;8.82;;;5.47;;
71462;SDS011;59266;52.608;13.260;2023-06-10T14:34:35;7.70;;;4.65;;
71462;SDS011;59266;52.608;13.260;2023-06-10T14:37:01;9.90;;;5.47;;
71462;SDS011;59266;52.608;13.260;2023-06-10T14:39:30;10.20;;;5.30;;
71462;SDS011;59266;52.608;13.260;2023-06-10T14:41:57;8.05;;;4.90;;
71462;SDS011;59266;52.608;13.260;2023-06-10T14:44:23;8.75;;;4.57;;
71462;SDS011;59266;52.608;13.260;2023-06-10T14:46:50;7.75;;;4.85;;
71462;SDS011;59266;52.608;13.260;2023-06-10T14:49:17;8.60;;;4.75;;
71462;SDS011;59266;52.608;13.260;2023-06-10T14:51:43;7.22;;;4.82;;
71462;SDS011;59266;52.608;13.260;2023-06-10T14:54:10;9.52;;;4.68;;
71462;SDS011;59266;52.608;13.260;2023-06-10T14:56:37;11.20;;;5.13;;